sensor_id;sensor_type;location;lat;lon;timestamp;P1;durP1;ratioP1;P2;durP2;ratioP2
48853;SDS011;34673;52.808;17.856;2022-10-22T00:00:14;84.30;;;37.05;;
48853;SDS011;34673;52.808;17.856;2022-10-22T00:02:43;53.22;;;29.27;;
48853;SDS011;34673;52.808;17.856;2022-10-22T00:05:10;77.65;;;33.83;;
48853;SDS011;34673;52.808;17.856;2022-10-22T00:07:38;65.65;;;32.80;;
48853;SDS011;34673;52.808;17.856;2022-10-22T00:10:06;68.88;;;30.92;;
48853;SDS011;34673;52.808;17.856;2022-10-22T00:12:34;59.65;;;28.98;;
48853;SDS011;34673;52.808;17.856;2022-10-22T00:15:02;56.25;;;29.48;;
48853;SDS011;34673;52.808;17.856;2022-10-22T00:17:30;43.88;;;25.23;;
48853;SDS011;34673;52.808;17.856;2022-10-22T00:19:58;68.80;;;30.55;;
48853;SDS011;34673;52.808;17.856;2022-10-22T00:22:25;56.15;;;26.25;;
48853;SDS011;34673;52.808;17.856;2022-10-22T00:24:52;48.25;;;25.60;;
48853;SDS011;34673;52.808;17.856;2022-10-22T00:27:20;50.08;;;25.73;;
48853;SDS011;34673;52.808;17.856;2022-10-22T00:29:47;56.35;;;27.13;;
48853;SDS011;34673;52.808;17.856;2022-10-22T00:32:14;51.53;;;25.88;;
48853;SDS011;34673;52.808;17.856;2022-10-22T00:34:41;54.97;;;26.52;;
48853;SDS011;34673;52.808;17.856;2022-10-22T00:37:09;46.45;;;23.35;;
48853;SDS011;34673;52.808;17.856;2022-10-22T00:39:36;62.95;;;27.10;;
48853;SDS011;34673;52.808;17.856;2022-10-22T00:42:03;59.00;;;26.77;;
48853;SDS011;34673;52.808;17.856;2022-10-22T00:47:36;40.90;;;23.15;;
48853;SDS011;34673;52.808;17.856;2022-10-22T00:50:08;54.10;;;27.67;;
48853;SDS011;34673;52.808;17.856;2022-10-22T00:52:53;58.95;;;29.55;;
48853;SDS011;34673;52.808;17.856;2022-10-22T00:55:22;70.90;;;31.33;;
48853;SDS011;34673;52.808;17.856;2022-10-22T00:57:51;55.15;;;28.73;;
48853;SDS011;34673;52.808;17.856;2022-10-22T01:00:23;76.97;;;32.15;;
48853;SDS011;34673;52.808;17.856;2022-10-22T01:02:51;50.20;;;26.38;;
48853;SDS011;34673;52.808;17.856;2022-10-22T01:05:20;58.42;;;28.67;;
48853;SDS011;34673;52.808;17.856;2022-10-22T01:07:48;63.08;;;28.85;;
48853;SDS011;34673;52.808;17.856;2022-10-22T01:13:00;72.82;;;31.20;;
48853;SDS011;34673;52.808;17.856;2022-10-22T01:15:41;74.55;;;30.67;;
48853;SDS011;34673;52.808;17.856;2022-10-22T01:18:21;76.80;;;30.83;;
48853;SDS011;34673;52.808;17.856;2022-10-22T01:21:38;69.90;;;30.45;;
48853;SDS011;34673;52.808;17.856;2022-10-22T01:29:59;59.58;;;28.63;;
48853;SDS011;34673;52.808;17.856;2022-10-22T01:32:32;84.35;;;32.85;;
48853;SDS011;34673;52.808;17.856;2022-10-22T01:35:06;73.78;;;31.73;;
48853;SDS011;34673;52.808;17.856;2022-10-22T01:37:41;83.65;;;34.83;;
48853;SDS011;34673;52.808;17.856;2022-10-22T01:40:17;96.78;;;37.90;;
48853;SDS011;34673;52.808;17.856;2022-10-22T01:45:24;92.07;;;36.17;;
48853;SDS011;34673;52.808;17.856;2022-10-22T01:50:31;82.78;;;34.97;;
48853;SDS011;34673;52.808;17.856;2022-10-22T01:56:04;68.55;;;31.55;;
48853;SDS011;34673;52.808;17.856;2022-10-22T02:01:45;103.25;;;36.85;;
48853;SDS011;34673;52.808;17.856;2022-10-22T02:04:33;94.47;;;35.75;;
48853;SDS011;34673;52.808;17.856;2022-10-22T02:07:09;93.78;;;36.13;;
48853;SDS011;34673;52.808;17.856;2022-10-22T02:09:39;73.97;;;33.95;;
48853;SDS011;34673;52.808;17.856;2022-10-22T02:12:09;96.68;;;36.97;;
48853;SDS011;34673;52.808;17.856;2022-10-22T02:14:38;97.10;;;37.63;;
48853;SDS011;34673;52.808;17.856;2022-10-22T02:17:10;76.72;;;33.97;;
48853;SDS011;34673;52.808;17.856;2022-10-22T02:19:45;106.20;;;38.47;;
48853;SDS011;34673;52.808;17.856;2022-10-22T02:22:17;83.00;;;34.38;;
48853;SDS011;34673;52.808;17.856;2022-10-22T02:24:46;81.07;;;34.72;;
48853;SDS011;34673;52.808;17.856;2022-10-22T02:33:20;115.35;;;37.78;;
48853;SDS011;34673;52.808;17.856;2022-10-22T02:35:37;88.07;;;36.72;;
48853;SDS011;34673;52.808;17.856;2022-10-22T02:38:07;92.47;;;35.80;;
48853;SDS011;34673;52.808;17.856;2022-10-22T02:40:36;138.80;;;42.95;;
48853;SDS011;34673;52.808;17.856;2022-10-22T02:43:04;91.85;;;36.63;;
48853;SDS011;34673;52.808;17.856;2022-10-22T02:45:31;97.40;;;37.45;;
48853;SDS011;34673;52.808;17.856;2022-10-22T02:48:00;81.90;;;36.13;;
48853;SDS011;34673;52.808;17.856;2022-10-22T02:50:27;97.68;;;37.00;;
48853;SDS011;34673;52.808;17.856;2022-10-22T02:52:55;91.03;;;37.35;;
48853;SDS011;34673;52.808;17.856;2022-10-22T02:55:22;69.13;;;31.00;;
48853;SDS011;34673;52.808;17.856;2022-10-22T02:57:49;68.93;;;32.50;;
48853;SDS011;34673;52.808;17.856;2022-10-22T03:00:17;104.20;;;38.53;;
48853;SDS011;34673;52.808;17.856;2022-10-22T03:02:44;108.68;;;39.78;;
48853;SDS011;34673;52.808;17.856;2022-10-22T03:05:12;136.40;;;42.50;;
48853;SDS011;34673;52.808;17.856;2022-10-22T03:07:39;75.75;;;35.03;;
48853;SDS011;34673;52.808;17.856;2022-10-22T03:10:07;123.43;;;41.92;;
48853;SDS011;34673;52.808;17.856;2022-10-22T03:12:34;108.07;;;40.08;;
48853;SDS011;34673;52.808;17.856;2022-10-22T03:15:02;160.45;;;46.53;;
48853;SDS011;34673;52.808;17.856;2022-10-22T03:17:29;85.22;;;35.92;;
48853;SDS011;34673;52.808;17.856;2022-10-22T03:19:56;123.82;;;42.58;;
48853;SDS011;34673;52.808;17.856;2022-10-22T03:22:25;108.90;;;40.38;;
48853;SDS011;34673;52.808;17.856;2022-10-22T03:24:57;98.90;;;37.17;;
48853;SDS011;34673;52.808;17.856;2022-10-22T03:27:27;70.15;;;34.35;;
48853;SDS011;34673;52.808;17.856;2022-10-22T03:29:55;84.75;;;36.88;;
48853;SDS011;34673;52.808;17.856;2022-10-22T03:32:23;172.43;;;46.85;;
48853;SDS011;34673;52.808;17.856;2022-10-22T03:34:51;125.50;;;40.97;;
48853;SDS011;34673;52.808;17.856;2022-10-22T03:37:18;96.95;;;37.50;;
48853;SDS011;34673;52.808;17.856;2022-10-22T03:39:46;106.85;;;38.38;;
48853;SDS011;34673;52.808;17.856;2022-10-22T03:42:13;172.13;;;45.60;;
48853;SDS011;34673;52.808;17.856;2022-10-22T03:44:42;116.85;;;39.78;;
48853;SDS011;34673;52.808;17.856;2022-10-22T03:47:10;176.88;;;47.70;;
48853;SDS011;34673;52.808;17.856;2022-10-22T03:49:38;98.00;;;39.15;;
48853;SDS011;34673;52.808;17.856;2022-10-22T03:52:05;110.47;;;40.38;;
48853;SDS011;34673;52.808;17.856;2022-10-22T03:54:34;185.95;;;48.58;;
48853;SDS011;34673;52.808;17.856;2022-10-22T03:57:03;135.27;;;42.10;;
48853;SDS011;34673;52.808;17.856;2022-10-22T03:59:38;221.90;;;49.33;;
48853;SDS011;34673;52.808;17.856;2022-10-22T04:02:09;127.97;;;41.13;;
48853;SDS011;34673;52.808;17.856;2022-10-22T04:04:38;207.95;;;49.10;;
48853;SDS011;34673;52.808;17.856;2022-10-22T04:07:06;215.73;;;51.22;;
48853;SDS011;34673;52.808;17.856;2022-10-22T04:09:34;225.18;;;51.78;;
48853;SDS011;34673;52.808;17.856;2022-10-22T04:12:01;173.63;;;45.88;;
48853;SDS011;34673;52.808;17.856;2022-10-22T04:14:31;229.30;;;50.20;;
48853;SDS011;34673;52.808;17.856;2022-10-22T04:16:58;103.38;;;38.38;;
48853;SDS011;34673;52.808;17.856;2022-10-22T04:19:25;159.15;;;43.85;;
48853;SDS011;34673;52.808;17.856;2022-10-22T04:21:53;92.90;;;35.55;;
48853;SDS011;34673;52.808;17.856;2022-10-22T04:24:20;147.50;;;40.95;;
48853;SDS011;34673;52.808;17.856;2022-10-22T04:26:47;137.10;;;42.42;;
48853;SDS011;34673;52.808;17.856;2022-10-22T04:29:14;103.20;;;37.90;;
48853;SDS011;34673;52.808;17.856;2022-10-22T04:31:42;99.95;;;38.17;;
48853;SDS011;34673;52.808;17.856;2022-10-22T04:34:09;164.15;;;43.15;;
48853;SDS011;34673;52.808;17.856;2022-10-22T04:36:36;161.63;;;45.05;;
48853;SDS011;34673;52.808;17.856;2022-10-22T04:39:04;122.55;;;38.88;;
48853;SDS011;34673;52.808;17.856;2022-10-22T04:41:33;107.20;;;36.33;;
48853;SDS011;34673;52.808;17.856;2022-10-22T04:44:02;122.05;;;39.08;;
48853;SDS011;34673;52.808;17.856;2022-10-22T04:46:31;201.23;;;45.55;;
48853;SDS011;34673;52.808;17.856;2022-10-22T04:49:00;194.67;;;45.97;;
48853;SDS011;34673;52.808;17.856;2022-10-22T04:51:29;117.30;;;37.33;;
48853;SDS011;34673;52.808;17.856;2022-10-22T04:53:58;182.43;;;43.17;;
48853;SDS011;34673;52.808;17.856;2022-10-22T04:56:26;163.02;;;41.63;;
48853;SDS011;34673;52.808;17.856;2022-10-22T04:58:56;115.18;;;36.92;;
48853;SDS011;34673;52.808;17.856;2022-10-22T05:01:27;196.23;;;44.55;;
48853;SDS011;34673;52.808;17.856;2022-10-22T05:03:57;186.00;;;45.03;;
48853;SDS011;34673;52.808;17.856;2022-10-22T05:06:27;134.30;;;37.65;;
48853;SDS011;34673;52.808;17.856;2022-10-22T05:08:57;133.85;;;37.70;;
48853;SDS011;34673;52.808;17.856;2022-10-22T05:11:27;100.22;;;35.60;;
48853;SDS011;34673;52.808;17.856;2022-10-22T05:13:57;173.73;;;42.67;;
48853;SDS011;34673;52.808;17.856;2022-10-22T05:16:27;103.37;;;34.50;;
48853;SDS011;34673;52.808;17.856;2022-10-22T05:18:56;313.05;;;52.88;;
48853;SDS011;34673;52.808;17.856;2022-10-22T05:21:24;347.58;;;53.63;;
48853;SDS011;34673;52.808;17.856;2022-10-22T05:23:52;206.55;;;44.45;;
48853;SDS011;34673;52.808;17.856;2022-10-22T05:26:20;192.13;;;45.40;;
48853;SDS011;34673;52.808;17.856;2022-10-22T05:28:49;179.52;;;43.15;;
48853;SDS011;34673;52.808;17.856;2022-10-22T05:31:17;232.20;;;44.22;;
48853;SDS011;34673;52.808;17.856;2022-10-22T05:33:46;215.00;;;45.00;;
48853;SDS011;34673;52.808;17.856;2022-10-22T05:36:14;157.85;;;40.75;;
48853;SDS011;34673;52.808;17.856;2022-10-22T05:38:43;321.63;;;53.05;;
48853;SDS011;34673;52.808;17.856;2022-10-22T05:41:13;275.58;;;48.17;;
48853;SDS011;34673;52.808;17.856;2022-10-22T05:43:43;189.07;;;41.75;;
48853;SDS011;34673;52.808;17.856;2022-10-22T05:46:15;127.00;;;36.85;;
48853;SDS011;34673;52.808;17.856;2022-10-22T05:48:52;252.32;;;47.25;;
48853;SDS011;34673;52.808;17.856;2022-10-22T05:51:21;235.25;;;44.20;;
48853;SDS011;34673;52.808;17.856;2022-10-22T05:53:54;260.35;;;44.72;;
48853;SDS011;34673;52.808;17.856;2022-10-22T05:56:23;323.83;;;49.53;;
48853;SDS011;34673;52.808;17.856;2022-10-22T05:58:51;230.07;;;43.65;;
48853;SDS011;34673;52.808;17.856;2022-10-22T06:01:20;143.75;;;37.63;;
48853;SDS011;34673;52.808;17.856;2022-10-22T06:03:56;237.20;;;43.70;;
48853;SDS011;34673;52.808;17.856;2022-10-22T06:06:28;325.48;;;48.53;;
48853;SDS011;34673;52.808;17.856;2022-10-22T06:09:09;248.85;;;43.53;;
48853;SDS011;34673;52.808;17.856;2022-10-22T06:11:37;115.35;;;35.28;;
48853;SDS011;34673;52.808;17.856;2022-10-22T06:14:04;286.85;;;47.03;;
48853;SDS011;34673;52.808;17.856;2022-10-22T06:16:32;282.95;;;45.15;;
48853;SDS011;34673;52.808;17.856;2022-10-22T06:18:59;312.30;;;48.80;;
48853;SDS011;34673;52.808;17.856;2022-10-22T06:23:57;346.08;;;49.03;;
48853;SDS011;34673;52.808;17.856;2022-10-22T06:26:25;270.65;;;45.38;;
48853;SDS011;34673;52.808;17.856;2022-10-22T06:28:53;178.40;;;40.25;;
48853;SDS011;34673;52.808;17.856;2022-10-22T06:31:22;126.50;;;35.35;;
48853;SDS011;34673;52.808;17.856;2022-10-22T06:33:52;170.15;;;37.55;;
48853;SDS011;34673;52.808;17.856;2022-10-22T06:36:21;134.80;;;35.42;;
48853;SDS011;34673;52.808;17.856;2022-10-22T06:38:52;142.93;;;36.33;;
48853;SDS011;34673;52.808;17.856;2022-10-22T06:41:21;95.85;;;31.17;;
48853;SDS011;34673;52.808;17.856;2022-10-22T06:43:54;187.93;;;40.17;;
48853;SDS011;34673;52.808;17.856;2022-10-22T06:46:23;93.25;;;31.15;;
48853;SDS011;34673;52.808;17.856;2022-10-22T06:48:55;96.95;;;31.95;;
48853;SDS011;34673;52.808;17.856;2022-10-22T06:51:24;105.93;;;31.73;;
48853;SDS011;34673;52.808;17.856;2022-10-22T06:53:54;202.98;;;39.28;;
48853;SDS011;34673;52.808;17.856;2022-10-22T06:56:23;144.07;;;36.33;;
48853;SDS011;34673;52.808;17.856;2022-10-22T07:01:22;201.75;;;41.08;;
48853;SDS011;34673;52.808;17.856;2022-10-22T07:03:51;206.98;;;40.35;;
48853;SDS011;34673;52.808;17.856;2022-10-22T07:06:20;224.45;;;43.85;;
48853;SDS011;34673;52.808;17.856;2022-10-22T07:08:50;171.38;;;38.22;;
48853;SDS011;34673;52.808;17.856;2022-10-22T07:11:19;196.13;;;41.08;;
48853;SDS011;34673;52.808;17.856;2022-10-22T07:14:06;171.05;;;37.33;;
48853;SDS011;34673;52.808;17.856;2022-10-22T07:16:33;130.30;;;36.00;;
48853;SDS011;34673;52.808;17.856;2022-10-22T07:19:01;138.43;;;36.35;;
48853;SDS011;34673;52.808;17.856;2022-10-22T07:21:29;121.63;;;33.65;;
48853;SDS011;34673;52.808;17.856;2022-10-22T07:23:57;157.75;;;37.72;;
48853;SDS011;34673;52.808;17.856;2022-10-22T07:26:25;122.50;;;33.55;;
48853;SDS011;34673;52.808;17.856;2022-10-22T07:28:57;194.30;;;41.45;;
48853;SDS011;34673;52.808;17.856;2022-10-22T07:31:25;189.57;;;40.78;;
48853;SDS011;34673;52.808;17.856;2022-10-22T07:33:53;125.75;;;33.50;;
48853;SDS011;34673;52.808;17.856;2022-10-22T07:36:20;104.93;;;32.25;;
48853;SDS011;34673;52.808;17.856;2022-10-22T07:38:48;128.65;;;33.50;;
48853;SDS011;34673;52.808;17.856;2022-10-22T07:41:21;143.05;;;36.83;;
48853;SDS011;34673;52.808;17.856;2022-10-22T07:43:49;126.85;;;33.72;;
48853;SDS011;34673;52.808;17.856;2022-10-22T07:46:16;151.50;;;37.22;;
48853;SDS011;34673;52.808;17.856;2022-10-22T07:48:44;130.05;;;33.88;;
48853;SDS011;34673;52.808;17.856;2022-10-22T07:51:13;136.77;;;34.28;;
48853;SDS011;34673;52.808;17.856;2022-10-22T07:53:41;146.00;;;34.42;;
48853;SDS011;34673;52.808;17.856;2022-10-22T07:56:08;78.60;;;27.55;;
48853;SDS011;34673;52.808;17.856;2022-10-22T07:58:36;147.48;;;35.45;;
48853;SDS011;34673;52.808;17.856;2022-10-22T08:01:03;148.45;;;35.75;;
48853;SDS011;34673;52.808;17.856;2022-10-22T08:03:33;99.80;;;30.10;;
48853;SDS011;34673;52.808;17.856;2022-10-22T08:06:01;149.15;;;36.42;;
48853;SDS011;34673;52.808;17.856;2022-10-22T08:08:29;118.80;;;33.00;;
48853;SDS011;34673;52.808;17.856;2022-10-22T08:10:58;91.30;;;29.77;;
48853;SDS011;34673;52.808;17.856;2022-10-22T08:13:26;167.27;;;37.67;;
48853;SDS011;34673;52.808;17.856;2022-10-22T08:15:57;85.03;;;28.30;;
48853;SDS011;34673;52.808;17.856;2022-10-22T08:18:25;128.00;;;33.97;;
48853;SDS011;34673;52.808;17.856;2022-10-22T08:20:53;110.30;;;31.60;;
48853;SDS011;34673;52.808;17.856;2022-10-22T08:23:21;110.35;;;33.22;;
48853;SDS011;34673;52.808;17.856;2022-10-22T08:25:54;125.57;;;33.30;;
48853;SDS011;34673;52.808;17.856;2022-10-22T08:28:22;107.18;;;32.70;;
48853;SDS011;34673;52.808;17.856;2022-10-22T08:30:49;79.63;;;29.05;;
48853;SDS011;34673;52.808;17.856;2022-10-22T08:33:16;88.53;;;30.95;;
48853;SDS011;34673;52.808;17.856;2022-10-22T08:35:50;130.48;;;35.67;;
48853;SDS011;34673;52.808;17.856;2022-10-22T08:38:19;119.68;;;33.80;;
48853;SDS011;34673;52.808;17.856;2022-10-22T08:40:48;184.95;;;40.22;;
48853;SDS011;34673;52.808;17.856;2022-10-22T08:46:17;235.48;;;44.38;;
48853;SDS011;34673;52.808;17.856;2022-10-22T08:49:04;216.45;;;42.63;;
48853;SDS011;34673;52.808;17.856;2022-10-22T08:51:38;102.47;;;31.55;;
48853;SDS011;34673;52.808;17.856;2022-10-22T08:54:24;258.17;;;46.42;;
48853;SDS011;34673;52.808;17.856;2022-10-22T09:02:37;141.95;;;34.25;;
48853;SDS011;34673;52.808;17.856;2022-10-22T09:07:53;179.25;;;37.67;;
48853;SDS011;34673;52.808;17.856;2022-10-22T09:10:23;126.75;;;33.83;;
48853;SDS011;34673;52.808;17.856;2022-10-22T09:12:53;130.32;;;34.45;;
48853;SDS011;34673;52.808;17.856;2022-10-22T09:15:21;189.75;;;38.90;;
48853;SDS011;34673;52.808;17.856;2022-10-22T09:25:49;163.40;;;38.13;;
48853;SDS011;34673;52.808;17.856;2022-10-22T09:28:18;210.88;;;42.45;;
48853;SDS011;34673;52.808;17.856;2022-10-22T09:30:45;140.52;;;37.88;;
48853;SDS011;34673;52.808;17.856;2022-10-22T09:33:17;175.75;;;41.72;;
48853;SDS011;34673;52.808;17.856;2022-10-22T09:35:57;134.35;;;35.13;;
48853;SDS011;34673;52.808;17.856;2022-10-22T09:38:30;171.90;;;41.03;;
48853;SDS011;34673;52.808;17.856;2022-10-22T09:43:29;191.63;;;39.67;;
48853;SDS011;34673;52.808;17.856;2022-10-22T09:46:02;140.07;;;36.88;;
48853;SDS011;34673;52.808;17.856;2022-10-22T09:48:35;174.93;;;40.35;;
48853;SDS011;34673;52.808;17.856;2022-10-22T09:53:56;147.38;;;36.60;;
48853;SDS011;34673;52.808;17.856;2022-10-22T09:56:26;149.18;;;37.50;;
48853;SDS011;34673;52.808;17.856;2022-10-22T09:59:01;163.10;;;40.03;;
48853;SDS011;34673;52.808;17.856;2022-10-22T10:01:36;116.50;;;34.33;;
48853;SDS011;34673;52.808;17.856;2022-10-22T10:04:07;126.25;;;34.20;;
48853;SDS011;34673;52.808;17.856;2022-10-22T10:06:37;155.27;;;39.85;;
48853;SDS011;34673;52.808;17.856;2022-10-22T10:09:13;126.43;;;35.50;;
48853;SDS011;34673;52.808;17.856;2022-10-22T10:11:47;177.25;;;40.50;;
48853;SDS011;34673;52.808;17.856;2022-10-22T10:14:37;103.03;;;33.67;;
48853;SDS011;34673;52.808;17.856;2022-10-22T10:18:05;124.80;;;35.50;;
48853;SDS011;34673;52.808;17.856;2022-10-22T10:20:40;139.73;;;37.13;;
48853;SDS011;34673;52.808;17.856;2022-10-22T10:26:08;97.68;;;32.90;;
48853;SDS011;34673;52.808;17.856;2022-10-22T10:34:17;123.75;;;35.00;;
48853;SDS011;34673;52.808;17.856;2022-10-22T10:42:57;155.18;;;41.35;;
48853;SDS011;34673;52.808;17.856;2022-10-22T11:07:43;108.13;;;35.25;;
48853;SDS011;34673;52.808;17.856;2022-10-22T11:13:27;182.45;;;43.08;;
48853;SDS011;34673;52.808;17.856;2022-10-22T11:16:11;135.82;;;35.97;;
48853;SDS011;34673;52.808;17.856;2022-10-22T11:22:00;145.30;;;37.63;;
48853;SDS011;34673;52.808;17.856;2022-10-22T11:24:42;142.35;;;39.05;;
48853;SDS011;34673;52.808;17.856;2022-10-22T11:27:22;161.18;;;39.85;;
48853;SDS011;34673;52.808;17.856;2022-10-22T11:30:15;177.55;;;42.60;;
48853;SDS011;34673;52.808;17.856;2022-10-22T11:32:50;109.43;;;35.80;;
48853;SDS011;34673;52.808;17.856;2022-10-22T11:35:21;161.68;;;40.75;;
48853;SDS011;34673;52.808;17.856;2022-10-22T11:37:53;124.25;;;37.72;;
48853;SDS011;34673;52.808;17.856;2022-10-22T11:43:03;148.05;;;38.63;;
48853;SDS011;34673;52.808;17.856;2022-10-22T11:45:35;183.50;;;44.33;;
48853;SDS011;34673;52.808;17.856;2022-10-22T11:48:11;157.15;;;40.28;;
48853;SDS011;34673;52.808;17.856;2022-10-22T11:53:16;150.40;;;40.17;;
48853;SDS011;34673;52.808;17.856;2022-10-22T11:55:47;114.00;;;34.70;;
48853;SDS011;34673;52.808;17.856;2022-10-22T12:06:20;170.20;;;39.45;;
48853;SDS011;34673;52.808;17.856;2022-10-22T12:14:22;129.73;;;31.52;;
48853;SDS011;34673;52.808;17.856;2022-10-22T12:16:56;78.55;;;25.13;;
48853;SDS011;34673;52.808;17.856;2022-10-22T12:24:52;75.13;;;21.65;;
48853;SDS011;34673;52.808;17.856;2022-10-22T12:27:24;121.20;;;28.90;;
48853;SDS011;34673;52.808;17.856;2022-10-22T12:29:56;56.42;;;22.05;;
48853;SDS011;34673;52.808;17.856;2022-10-22T12:32:32;124.00;;;29.03;;
48853;SDS011;34673;52.808;17.856;2022-10-22T12:35:05;55.75;;;19.77;;
48853;SDS011;34673;52.808;17.856;2022-10-22T12:37:35;80.63;;;22.67;;
48853;SDS011;34673;52.808;17.856;2022-10-22T12:40:20;66.72;;;21.70;;
48853;SDS011;34673;52.808;17.856;2022-10-22T12:42:59;47.55;;;17.30;;
48853;SDS011;34673;52.808;17.856;2022-10-22T12:45:47;104.88;;;27.73;;
48853;SDS011;34673;52.808;17.856;2022-10-22T12:48:32;45.53;;;17.97;;
48853;SDS011;34673;52.808;17.856;2022-10-22T12:51:05;47.83;;;19.17;;
48853;SDS011;34673;52.808;17.856;2022-10-22T12:56:15;117.63;;;28.20;;
48853;SDS011;34673;52.808;17.856;2022-10-22T12:58:50;43.20;;;17.92;;
48853;SDS011;34673;52.808;17.856;2022-10-22T13:01:24;90.10;;;24.20;;
48853;SDS011;34673;52.808;17.856;2022-10-22T13:07:03;71.32;;;23.17;;
48853;SDS011;34673;52.808;17.856;2022-10-22T13:09:48;35.40;;;16.17;;
48853;SDS011;34673;52.808;17.856;2022-10-22T13:12:25;44.03;;;17.95;;
48853;SDS011;34673;52.808;17.856;2022-10-22T13:14:54;59.17;;;20.75;;
48853;SDS011;34673;52.808;17.856;2022-10-22T13:17:37;34.22;;;15.25;;
48853;SDS011;34673;52.808;17.856;2022-10-22T13:20:25;39.83;;;16.60;;
48853;SDS011;34673;52.808;17.856;2022-10-22T13:22:53;53.50;;;19.30;;
48853;SDS011;34673;52.808;17.856;2022-10-22T13:25:27;51.17;;;19.10;;
48853;SDS011;34673;52.808;17.856;2022-10-22T13:30:34;63.08;;;20.63;;
48853;SDS011;34673;52.808;17.856;2022-10-22T13:33:03;61.28;;;20.20;;
48853;SDS011;34673;52.808;17.856;2022-10-22T13:35:43;32.30;;;14.65;;
48853;SDS011;34673;52.808;17.856;2022-10-22T13:38:14;41.63;;;17.20;;
48853;SDS011;34673;52.808;17.856;2022-10-22T13:40:45;65.32;;;20.45;;
48853;SDS011;34673;52.808;17.856;2022-10-22T13:43:13;67.75;;;21.42;;
48853;SDS011;34673;52.808;17.856;2022-10-22T13:45:41;39.88;;;16.08;;
48853;SDS011;34673;52.808;17.856;2022-10-22T13:48:16;35.13;;;14.20;;
48853;SDS011;34673;52.808;17.856;2022-10-22T13:50:48;27.63;;;12.55;;
48853;SDS011;34673;52.808;17.856;2022-10-22T13:53:23;32.75;;;14.10;;
48853;SDS011;34673;52.808;17.856;2022-10-22T13:55:51;22.80;;;10.55;;
48853;SDS011;34673;52.808;17.856;2022-10-22T13:58:19;31.33;;;14.25;;
48853;SDS011;34673;52.808;17.856;2022-10-22T14:00:52;38.33;;;14.25;;
48853;SDS011;34673;52.808;17.856;2022-10-22T14:03:30;21.33;;;10.82;;
48853;SDS011;34673;52.808;17.856;2022-10-22T14:06:00;33.85;;;13.57;;
48853;SDS011;34673;52.808;17.856;2022-10-22T14:08:27;27.98;;;14.93;;
48853;SDS011;34673;52.808;17.856;2022-10-22T14:10:55;41.45;;;16.17;;
48853;SDS011;34673;52.808;17.856;2022-10-22T14:13:22;50.10;;;19.40;;
48853;SDS011;34673;52.808;17.856;2022-10-22T14:15:50;46.22;;;19.05;;
48853;SDS011;34673;52.808;17.856;2022-10-22T14:18:27;56.50;;;21.95;;
48853;SDS011;34673;52.808;17.856;2022-10-22T14:21:00;46.75;;;19.88;;
48853;SDS011;34673;52.808;17.856;2022-10-22T14:23:36;52.25;;;21.70;;
48853;SDS011;34673;52.808;17.856;2022-10-22T14:26:03;46.80;;;20.45;;
48853;SDS011;34673;52.808;17.856;2022-10-22T14:28:33;50.38;;;22.08;;
48853;SDS011;34673;52.808;17.856;2022-10-22T14:31:11;64.50;;;23.08;;
48853;SDS011;34673;52.808;17.856;2022-10-22T14:33:39;39.90;;;18.27;;
48853;SDS011;34673;52.808;17.856;2022-10-22T14:36:08;50.70;;;20.30;;
48853;SDS011;34673;52.808;17.856;2022-10-22T14:38:38;46.65;;;19.05;;
48853;SDS011;34673;52.808;17.856;2022-10-22T14:41:21;57.38;;;20.33;;
48853;SDS011;34673;52.808;17.856;2022-10-22T14:43:50;55.20;;;20.40;;
48853;SDS011;34673;52.808;17.856;2022-10-22T14:46:18;62.25;;;22.20;;
48853;SDS011;34673;52.808;17.856;2022-10-22T14:48:45;43.10;;;18.27;;
48853;SDS011;34673;52.808;17.856;2022-10-22T14:51:14;43.90;;;18.10;;
48853;SDS011;34673;52.808;17.856;2022-10-22T14:53:46;46.00;;;19.20;;
48853;SDS011;34673;52.808;17.856;2022-10-22T14:56:15;46.67;;;19.63;;
48853;SDS011;34673;52.808;17.856;2022-10-22T14:58:44;47.28;;;19.67;;
48853;SDS011;34673;52.808;17.856;2022-10-22T15:01:11;41.85;;;19.70;;
48853;SDS011;34673;52.808;17.856;2022-10-22T15:03:38;39.95;;;19.13;;
48853;SDS011;34673;52.808;17.856;2022-10-22T15:06:06;41.13;;;20.13;;
48853;SDS011;34673;52.808;17.856;2022-10-22T15:08:33;41.95;;;19.73;;
48853;SDS011;34673;52.808;17.856;2022-10-22T15:13:30;58.63;;;24.08;;
48853;SDS011;34673;52.808;17.856;2022-10-22T15:15:58;49.33;;;22.30;;
48853;SDS011;34673;52.808;17.856;2022-10-22T15:18:26;71.75;;;28.02;;
48853;SDS011;34673;52.808;17.856;2022-10-22T15:20:55;56.40;;;24.55;;
48853;SDS011;34673;52.808;17.856;2022-10-22T15:23:27;60.92;;;23.75;;
48853;SDS011;34673;52.808;17.856;2022-10-22T15:25:55;56.45;;;25.00;;
48853;SDS011;34673;52.808;17.856;2022-10-22T15:28:23;63.47;;;27.35;;
48853;SDS011;34673;52.808;17.856;2022-10-22T15:30:52;65.60;;;26.60;;
48853;SDS011;34673;52.808;17.856;2022-10-22T15:33:20;72.40;;;27.75;;
48853;SDS011;34673;52.808;17.856;2022-10-22T15:35:47;54.42;;;24.63;;
48853;SDS011;34673;52.808;17.856;2022-10-22T15:38:14;70.70;;;34.08;;
48853;SDS011;34673;52.808;17.856;2022-10-22T15:40:42;89.93;;;33.72;;
48853;SDS011;34673;52.808;17.856;2022-10-22T15:43:09;77.30;;;29.80;;
48853;SDS011;34673;52.808;17.856;2022-10-22T15:45:37;59.92;;;26.80;;
48853;SDS011;34673;52.808;17.856;2022-10-22T15:48:04;67.82;;;29.23;;
48853;SDS011;34673;52.808;17.856;2022-10-22T15:50:34;70.90;;;29.73;;
48853;SDS011;34673;52.808;17.856;2022-10-22T15:53:04;69.35;;;27.73;;
48853;SDS011;34673;52.808;17.856;2022-10-22T15:55:31;98.63;;;33.85;;
48853;SDS011;34673;52.808;17.856;2022-10-22T15:57:58;75.18;;;29.83;;
48853;SDS011;34673;52.808;17.856;2022-10-22T16:00:28;65.68;;;28.42;;
48853;SDS011;34673;52.808;17.856;2022-10-22T16:02:56;59.33;;;26.00;;
48853;SDS011;34673;52.808;17.856;2022-10-22T16:05:23;56.88;;;27.30;;
48853;SDS011;34673;52.808;17.856;2022-10-22T16:07:54;74.45;;;29.80;;
48853;SDS011;34673;52.808;17.856;2022-10-22T16:10:22;73.03;;;28.83;;
48853;SDS011;34673;52.808;17.856;2022-10-22T16:12:50;93.20;;;32.03;;
48853;SDS011;34673;52.808;17.856;2022-10-22T16:15:19;61.35;;;26.83;;
48853;SDS011;34673;52.808;17.856;2022-10-22T16:17:47;66.15;;;27.23;;
48853;SDS011;34673;52.808;17.856;2022-10-22T16:20:14;68.07;;;29.23;;
48853;SDS011;34673;52.808;17.856;2022-10-22T16:22:41;68.45;;;28.35;;
48853;SDS011;34673;52.808;17.856;2022-10-22T16:25:09;71.13;;;29.77;;
48853;SDS011;34673;52.808;17.856;2022-10-22T16:27:36;85.60;;;31.75;;
48853;SDS011;34673;52.808;17.856;2022-10-22T16:30:04;69.53;;;28.65;;
48853;SDS011;34673;52.808;17.856;2022-10-22T16:32:32;57.08;;;26.38;;
48853;SDS011;34673;52.808;17.856;2022-10-22T16:34:59;68.18;;;28.77;;
48853;SDS011;34673;52.808;17.856;2022-10-22T16:37:27;53.42;;;25.15;;
48853;SDS011;34673;52.808;17.856;2022-10-22T16:39:54;63.58;;;29.13;;